createdAt,value
2022-11-22T00:00:56.096Z,91.13
2022-11-22T00:03:23.979Z,86.47
2022-11-22T00:05:52.201Z,86.10
2022-11-22T00:08:20.154Z,87.33
2022-11-22T00:10:49.857Z,92.97
2022-11-22T00:13:19.719Z,94.33
2022-11-22T00:15:59.554Z,93.90
2022-11-22T00:18:27.532Z,92.80
2022-11-22T00:20:55.420Z,91.73
2022-11-22T00:23:23.530Z,90.63
2022-11-22T00:25:51.603Z,95.40
2022-11-22T00:28:20.933Z,90.83
2022-11-22T00:30:48.880Z,94.10
2022-11-22T00:33:16.877Z,94.47
2022-11-22T00:35:46.644Z,88.07
2022-11-22T00:38:14.607Z,91.70
2022-11-22T00:40:42.631Z,90.60
2022-11-22T00:43:10.604Z,90.20
2022-11-22T00:45:41.953Z,88.63
2022-11-22T00:48:09.868Z,92.43
2022-11-22T00:50:37.831Z,98.70
2022-11-22T00:53:05.853Z,96.27
2022-11-22T00:55:33.753Z,98.23
2022-11-22T00:58:01.882Z,100.90
2022-11-22T01:00:29.870Z,97.83
2022-11-22T01:02:59.210Z,101.30
2022-11-22T01:05:27.134Z,102.17
2022-11-22T01:07:55.269Z,99.07
2022-11-22T01:10:23.903Z,106.23
2022-11-22T01:12:51.818Z,105.40
2022-11-22T01:15:19.882Z,104.93
2022-11-22T01:17:47.785Z,108.40
2022-11-22T01:20:17.096Z,109.77
2022-11-22T01:22:45.122Z,109.03
2022-11-22T01:25:13.343Z,114.87
2022-11-22T01:27:41.344Z,118.43
2022-11-22T01:30:10.141Z,120.23
2022-11-22T01:32:38.023Z,119.67
2022-11-22T01:35:06.648Z,112.27
2022-11-22T01:37:36.253Z,107.67
2022-11-22T01:40:04.550Z,109.97
2022-11-22T01:42:44.574Z,103.40
2022-11-22T01:45:50.027Z,105.47
2022-11-22T01:48:39.085Z,109.10
2022-11-22T01:51:15.571Z,111.37
2022-11-22T01:53:45.363Z,112.90
2022-11-22T01:56:18.027Z,115.40
2022-11-22T01:58:50.145Z,125.03
2022-11-22T02:01:18.252Z,122.80
2022-11-22T02:03:50.765Z,121.77
2022-11-22T02:06:19.886Z,118.17
2022-11-22T02:08:56.204Z,112.93
2022-11-22T02:11:30.990Z,117.17
2022-11-22T02:14:01.969Z,113.07
2022-11-22T02:16:30.089Z,114.80
2022-11-22T02:18:58.030Z,116.10
2022-11-22T02:21:25.986Z,111.10
2022-11-22T02:23:58.689Z,113.87
2022-11-22T02:26:30.329Z,120.80
2022-11-22T02:29:05.269Z,113.63
2022-11-22T02:31:39.367Z,146.63
2022-11-22T02:34:07.379Z,120.07
2022-11-22T02:36:39.704Z,121.70
2022-11-22T02:39:10.165Z,154.97
2022-11-22T02:41:39.966Z,115.00
2022-11-22T02:44:10.600Z,105.30
2022-11-22T02:46:48.040Z,95.23
2022-11-22T02:49:18.715Z,97.43
2022-11-22T02:51:46.977Z,110.13
2022-11-22T02:54:15.179Z,118.40
2022-11-22T02:56:44.769Z,105.60
2022-11-22T02:59:12.731Z,141.77
2022-11-22T03:01:40.943Z,109.63
2022-11-22T03:04:08.933Z,106.40
2022-11-22T03:06:37.065Z,97.30
2022-11-22T03:09:04.954Z,96.83
2022-11-22T03:11:32.891Z,100.93
2022-11-22T03:14:02.154Z,96.80
2022-11-22T03:16:30.902Z,1033.83
2022-11-22T03:18:58.796Z,296.93
2022-11-22T03:21:26.820Z,226.87
2022-11-22T03:23:55.840Z,594.73
2022-11-22T03:26:23.793Z,877.43
2022-11-22T03:28:51.748Z,261.93
2022-11-22T03:31:21.129Z,215.17
2022-11-22T03:33:49.204Z,166.00
2022-11-22T03:36:17.082Z,158.17
2022-11-22T03:38:45.337Z,203.10
2022-11-22T03:41:15.385Z,281.83
2022-11-22T03:43:43.338Z,567.37
2022-11-22T03:46:15.770Z,199.63
2022-11-22T03:48:45.061Z,1116.03
2022-11-22T03:51:13.221Z,676.03
2022-11-22T03:53:41.099Z,733.13
2022-11-22T03:56:09.144Z,332.27
2022-11-22T03:58:37.012Z,1138.00
2022-11-22T04:01:05.098Z,1038.70
2022-11-22T04:03:33.199Z,610.20
2022-11-22T04:06:02.801Z,307.17
2022-11-22T04:08:30.780Z,525.57
2022-11-22T04:10:58.744Z,142.30
2022-11-22T04:13:47.320Z,1485.87
2022-11-22T04:16:14.454Z,1017.33
2022-11-22T04:18:42.558Z,365.27
2022-11-22T04:21:29.516Z,191.20
2022-11-22T04:24:11.368Z,722.50
2022-11-22T04:26:39.428Z,488.80
2022-11-22T04:29:10.143Z,964.70
2022-11-22T04:31:55.866Z,391.77
2022-11-22T04:34:24.417Z,285.17
2022-11-22T04:36:53.750Z,155.87
2022-11-22T04:39:21.798Z,761.53
2022-11-22T04:42:10.399Z,224.63
2022-11-22T04:44:42.999Z,713.87
2022-11-22T04:47:12.110Z,992.07
2022-11-22T04:49:40.130Z,201.40
2022-11-22T04:52:28.241Z,293.63
2022-11-22T04:54:56.205Z,359.37
2022-11-22T04:57:24.129Z,241.23
2022-11-22T04:59:52.222Z,400.33
2022-11-22T05:02:20.213Z,284.40
2022-11-22T05:04:50.825Z,194.87
2022-11-22T05:07:22.373Z,109.00
2022-11-22T05:09:50.281Z,240.07
2022-11-22T05:12:18.265Z,80.00
2022-11-22T05:14:46.158Z,1192.50
2022-11-22T05:17:14.105Z,434.40
2022-11-22T05:19:47.789Z,567.60
2022-11-22T05:22:17.246Z,604.87
2022-11-22T05:24:45.624Z,220.07
2022-11-22T05:27:13.537Z,632.50
2022-11-22T05:29:41.478Z,310.07
2022-11-22T05:32:09.471Z,650.90
2022-11-22T05:34:37.437Z,675.20
2022-11-22T05:37:05.457Z,104.07
2022-11-22T05:39:33.407Z,357.73
2022-11-22T05:42:05.901Z,112.93
2022-11-22T05:44:34.165Z,180.40
2022-11-22T05:47:02.117Z,87.30
2022-11-22T05:49:30.328Z,80.70
2022-11-22T05:51:58.476Z,85.83
2022-11-22T05:54:26.469Z,80.20
2022-11-22T05:56:54.389Z,79.00
2022-11-22T05:59:23.912Z,91.27
2022-11-22T06:01:51.807Z,78.30
2022-11-22T06:04:19.951Z,83.17
2022-11-22T06:06:47.984Z,77.80
2022-11-22T06:09:16.116Z,76.33
2022-11-22T06:11:44.078Z,79.60
2022-11-22T06:14:12.042Z,80.07
2022-11-22T06:16:41.327Z,76.40
2022-11-22T06:19:09.413Z,82.27
2022-11-22T06:21:37.392Z,82.97
2022-11-22T06:24:05.713Z,79.87
2022-11-22T06:26:39.095Z,78.50
2022-11-22T06:29:07.612Z,78.03
2022-11-22T06:31:35.621Z,79.37
2022-11-22T06:34:06.002Z,80.13
2022-11-22T06:36:35.910Z,79.40
2022-11-22T06:39:04.094Z,80.43
2022-11-22T06:41:34.767Z,81.97
2022-11-22T06:44:06.638Z,79.33
2022-11-22T06:46:35.348Z,77.50
2022-11-22T06:49:05.082Z,82.97
2022-11-22T06:51:33.779Z,82.30
2022-11-22T06:54:01.814Z,81.63
2022-11-22T06:56:31.826Z,81.60
2022-11-22T06:59:03.187Z,81.90
2022-11-22T07:01:31.720Z,81.77
2022-11-22T07:04:00.609Z,84.43
2022-11-22T07:06:31.640Z,80.40
2022-11-22T07:09:00.512Z,81.50
2022-11-22T07:11:32.750Z,81.37
2022-11-22T07:14:07.498Z,82.53
2022-11-22T07:16:37.040Z,81.00
2022-11-22T07:19:05.559Z,82.93
2022-11-22T07:21:37.432Z,87.53
2022-11-22T07:24:07.671Z,80.63
2022-11-22T07:26:35.848Z,80.90
2022-11-22T07:29:04.152Z,81.37
2022-11-22T07:31:32.164Z,82.27
2022-11-22T07:34:00.163Z,83.10
2022-11-22T07:36:29.647Z,79.40
2022-11-22T07:38:59.395Z,81.20
2022-11-22T07:41:27.414Z,82.03
2022-11-22T07:43:55.805Z,82.17
2022-11-22T07:46:26.460Z,82.00
2022-11-22T07:48:54.522Z,84.50
2022-11-22T07:51:22.771Z,81.47
2022-11-22T07:53:50.783Z,77.40
2022-11-22T07:56:20.419Z,78.53
2022-11-22T07:58:48.544Z,78.00
2022-11-22T08:01:18.363Z,79.20
2022-11-22T08:03:47.218Z,80.33
2022-11-22T08:06:16.625Z,77.83
2022-11-22T08:08:45.698Z,77.17
2022-11-22T08:11:14.372Z,73.20
2022-11-22T08:13:44.684Z,74.63
2022-11-22T08:16:15.044Z,78.77
2022-11-22T08:18:47.117Z,76.27
2022-11-22T08:21:15.931Z,76.20
2022-11-22T08:23:44.504Z,73.23
2022-11-22T08:26:14.516Z,74.13
2022-11-22T08:28:44.751Z,75.17
2022-11-22T08:31:14.938Z,73.50
2022-11-22T08:33:43.185Z,74.53
2022-11-22T08:36:11.346Z,74.57
2022-11-22T08:38:39.700Z,73.53
2022-11-22T08:41:08.419Z,73.07
2022-11-22T08:43:36.647Z,72.40
2022-11-22T08:46:06.577Z,71.57
2022-11-22T08:48:36.814Z,72.70
2022-11-22T08:51:07.343Z,71.50
2022-11-22T08:53:37.343Z,69.83
2022-11-22T08:56:07.087Z,67.43
2022-11-22T08:58:35.593Z,68.57
2022-11-22T09:01:08.412Z,68.37
2022-11-22T09:03:37.126Z,65.97
2022-11-22T09:09:08.738Z,65.30
2022-11-22T09:11:42.017Z,65.07
2022-11-22T09:14:09.957Z,63.83
2022-11-22T09:16:39.245Z,64.93
2022-11-22T09:19:07.259Z,62.50
2022-11-22T09:21:35.266Z,59.57
2022-11-22T09:24:03.342Z,61.37
2022-11-22T09:26:31.423Z,60.40
2022-11-22T09:28:59.296Z,60.23
2022-11-22T09:31:27.229Z,62.97
2022-11-22T09:33:56.503Z,70.43
2022-11-22T09:36:26.952Z,68.90
2022-11-22T09:38:56.208Z,69.73
2022-11-22T09:42:05.334Z,69.47
2022-11-22T09:44:43.399Z,70.93
2022-11-22T09:47:22.957Z,68.37
2022-11-22T09:50:04.587Z,69.13
2022-11-22T09:52:38.317Z,70.07
2022-11-22T09:55:12.332Z,72.70
2022-11-22T09:57:45.607Z,70.67
2022-11-22T10:00:20.924Z,69.70
2022-11-22T10:03:00.343Z,67.97
2022-11-22T10:05:35.746Z,67.53
2022-11-22T10:08:27.278Z,68.60
2022-11-22T10:10:58.643Z,67.60
2022-11-22T10:13:32.571Z,67.80
2022-11-22T10:16:09.927Z,65.40
2022-11-22T10:18:43.333Z,65.37
2022-11-22T10:21:14.393Z,64.40
2022-11-22T10:23:44.306Z,65.40
2022-11-22T10:26:23.290Z,64.53
2022-11-22T10:29:05.326Z,61.83
2022-11-22T10:31:42.279Z,64.47
2022-11-22T10:34:20.005Z,61.93
2022-11-22T10:36:57.064Z,63.07
2022-11-22T10:39:42.439Z,63.13
2022-11-22T10:42:24.361Z,62.40
2022-11-22T10:45:01.947Z,62.63
2022-11-22T10:47:54.195Z,61.63
2022-11-22T10:50:27.681Z,60.97
2022-11-22T10:53:06.711Z,61.43
2022-11-22T10:55:53.059Z,58.30
2022-11-22T10:58:33.936Z,58.33
2022-11-22T11:01:08.425Z,58.73
2022-11-22T11:03:40.120Z,56.83
2022-11-22T11:06:24.526Z,57.60
2022-11-22T11:11:56.189Z,56.20
2022-11-22T11:14:33.890Z,56.57
2022-11-22T11:17:03.963Z,56.73
2022-11-22T11:19:38.274Z,53.90
2022-11-22T11:22:26.122Z,53.47
2022-11-22T11:25:31.595Z,47.27
2022-11-22T11:28:03.900Z,44.10
2022-11-22T11:30:40.080Z,43.37
2022-11-22T11:33:19.533Z,43.97
2022-11-22T11:35:48.410Z,42.90
2022-11-22T11:38:36.408Z,42.23
2022-11-22T11:41:25.212Z,40.77
2022-11-22T11:43:54.148Z,41.07
2022-11-22T11:46:23.760Z,41.97
2022-11-22T11:48:53.330Z,40.47
2022-11-22T11:51:38.653Z,39.00
2022-11-22T11:54:12.134Z,33.10
2022-11-22T11:56:52.306Z,28.27
2022-11-22T11:59:22.334Z,19.97
2022-11-22T12:01:58.482Z,18.77
2022-11-22T12:04:29.933Z,16.50
2022-11-22T12:07:04.244Z,16.17
2022-11-22T12:09:37.537Z,15.13
2022-11-22T12:12:31.157Z,14.68
2022-11-22T12:15:11.927Z,15.98
2022-11-22T12:17:50.010Z,15.73
2022-11-22T12:20:23.155Z,15.20
2022-11-22T12:23:08.039Z,15.10
2022-11-22T12:25:45.168Z,16.70
2022-11-22T12:28:19.990Z,15.40
2022-11-22T12:30:54.262Z,16.30
2022-11-22T12:33:28.697Z,16.35
2022-11-22T12:35:58.548Z,15.63
2022-11-22T12:38:33.025Z,15.80
2022-11-22T12:41:04.543Z,15.30
2022-11-22T12:43:39.129Z,15.20
2022-11-22T12:46:13.059Z,15.75
2022-11-22T12:48:48.911Z,15.93
2022-11-22T12:51:24.904Z,15.30
2022-11-22T12:53:54.225Z,15.93
2022-11-22T12:56:33.382Z,20.73
2022-11-22T12:59:14.759Z,23.60
2022-11-22T13:01:48.947Z,24.60
2022-11-22T13:04:23.736Z,24.98
2022-11-22T13:06:58.776Z,26.10
2022-11-22T13:09:31.575Z,27.33
2022-11-22T13:12:04.164Z,30.57
2022-11-22T13:14:36.976Z,28.83
2022-11-22T13:17:08.316Z,28.13
2022-11-22T13:19:47.083Z,28.73
2022-11-22T13:22:26.870Z,29.37
2022-11-22T13:25:10.450Z,29.13
2022-11-22T13:27:44.373Z,28.50
2022-11-22T13:30:20.727Z,27.23
2022-11-22T13:32:52.045Z,26.60
2022-11-22T13:35:27.724Z,26.00
2022-11-22T13:37:58.032Z,27.10
2022-11-22T13:40:32.108Z,26.00
2022-11-22T13:43:50.410Z,26.90
2022-11-22T13:46:54.464Z,27.03
2022-11-22T13:49:41.093Z,27.33
2022-11-22T13:52:51.345Z,26.40
2022-11-22T13:55:36.013Z,26.80
2022-11-22T13:58:55.644Z,28.33
2022-11-22T14:01:59.135Z,32.20
2022-11-22T14:04:45.219Z,33.83
2022-11-22T14:07:35.843Z,35.10
2022-11-22T14:10:05.187Z,37.73
2022-11-22T14:13:18.418Z,37.83
2022-11-22T14:15:58.271Z,40.57
2022-11-22T14:18:52.805Z,42.03
2022-11-22T14:21:41.564Z,39.47
2022-11-22T14:24:15.426Z,41.13
2022-11-22T14:26:54.503Z,40.83
2022-11-22T14:29:53.785Z,42.13
2022-11-22T14:32:23.801Z,41.63
2022-11-22T14:35:26.370Z,41.03
2022-11-22T14:38:03.863Z,40.97
2022-11-22T14:40:37.531Z,41.80
2022-11-22T14:43:35.528Z,43.97
2022-11-22T14:46:37.355Z,43.60
2022-11-22T14:49:07.735Z,44.00
2022-11-22T14:51:37.837Z,44.40
2022-11-22T14:54:20.538Z,44.40
2022-11-22T14:56:49.440Z,44.80
2022-11-22T14:59:37.023Z,45.60
2022-11-22T15:02:31.331Z,47.30
2022-11-22T15:09:13.282Z,45.40
2022-11-22T15:09:21.983Z,47.83
2022-11-22T15:11:29.591Z,47.77
2022-11-22T15:14:46.465Z,48.40
2022-11-22T15:57:38.117Z,49.13
2022-11-22T16:00:12.197Z,48.10
2022-11-22T16:02:48.693Z,47.17
2022-11-22T16:06:08.153Z,46.43
2022-11-22T16:08:15.570Z,46.40
2022-11-22T16:10:45.668Z,45.07
2022-11-22T16:13:29.144Z,44.63
2022-11-22T16:16:08.884Z,45.43
2022-11-22T16:18:37.071Z,44.70
2022-11-22T16:21:07.262Z,43.70
2022-11-22T16:23:37.434Z,43.67
2022-11-22T16:26:24.886Z,45.77
2022-11-22T16:28:55.369Z,46.90
2022-11-22T16:31:24.976Z,46.60
2022-11-22T16:33:54.735Z,45.57
2022-11-22T16:36:24.776Z,46.60
2022-11-22T16:38:52.707Z,44.63
2022-11-22T16:41:23.706Z,44.50
2022-11-22T16:43:57.774Z,46.83
2022-11-22T16:46:25.765Z,45.77
2022-11-22T16:48:54.402Z,47.90
2022-11-22T16:51:24.715Z,47.00
2022-11-22T16:53:54.273Z,45.30
2022-11-22T16:56:23.429Z,48.50
2022-11-22T16:58:52.695Z,43.93
2022-11-22T17:01:24.178Z,43.73
2022-11-22T17:03:54.371Z,43.77
2022-11-22T17:06:24.437Z,42.30
2022-11-22T17:08:54.523Z,41.70
2022-11-22T17:11:24.889Z,40.57
2022-11-22T17:13:53.146Z,39.73
2022-11-22T17:16:22.664Z,38.93
2022-11-22T17:18:50.693Z,38.63
2022-11-22T17:21:25.763Z,37.87
2022-11-22T17:23:55.909Z,38.10
2022-11-22T17:26:24.607Z,37.60
2022-11-22T17:28:52.667Z,37.67
2022-11-22T17:31:23.481Z,35.77
2022-11-22T17:33:52.458Z,37.03
2022-11-22T17:36:26.395Z,36.47
2022-11-22T17:38:54.361Z,35.93
2022-11-22T17:41:22.633Z,36.97
2022-11-22T17:43:51.747Z,35.10
2022-11-22T17:46:20.058Z,36.97
2022-11-22T17:48:54.095Z,37.63
2022-11-22T17:51:22.695Z,39.27
2022-11-22T17:53:50.741Z,39.30
2022-11-22T17:56:18.684Z,39.27
2022-11-22T17:58:46.889Z,38.73
2022-11-22T18:01:16.483Z,40.13
2022-11-22T18:03:45.477Z,39.47
2022-11-22T18:06:16.002Z,40.37
2022-11-22T18:08:47.197Z,40.93
2022-11-22T18:11:16.174Z,41.53
2022-11-22T18:13:44.640Z,39.60
2022-11-22T18:16:15.713Z,41.40
2022-11-22T18:18:59.530Z,43.40
2022-11-22T18:21:30.282Z,47.27
2022-11-22T18:23:58.836Z,47.20
2022-11-22T18:26:42.986Z,46.30
2022-11-22T18:32:01.438Z,46.37
2022-11-22T18:34:29.599Z,46.03
2022-11-22T18:37:03.832Z,48.13
2022-11-22T18:39:33.941Z,48.83
2022-11-22T18:42:02.494Z,50.33
2022-11-22T18:44:30.524Z,49.50
2022-11-22T18:46:58.456Z,50.93
2022-11-22T18:49:26.419Z,50.67
2022-11-22T18:51:54.477Z,51.67
2022-11-22T18:54:23.840Z,51.60
2022-11-22T18:56:51.814Z,50.70
2022-11-22T18:59:20.053Z,53.13
2022-11-22T19:01:48.232Z,53.27
2022-11-22T19:04:17.036Z,54.17
2022-11-22T19:06:45.995Z,53.37
2022-11-22T19:09:14.072Z,55.30
2022-11-22T19:11:43.544Z,54.07
2022-11-22T19:14:11.486Z,55.43
2022-11-22T19:16:39.501Z,55.63
2022-11-22T19:19:08.464Z,56.83
2022-11-22T19:21:36.409Z,56.73
2022-11-22T19:24:04.766Z,55.70
2022-11-22T19:26:32.836Z,56.60
2022-11-22T19:29:02.888Z,57.13
2022-11-22T19:31:31.691Z,62.37
2022-11-22T19:34:00.104Z,60.00
2022-11-22T19:36:33.778Z,57.50
2022-11-22T19:39:03.765Z,56.97
2022-11-22T19:41:32.054Z,57.40
2022-11-22T19:44:00.154Z,58.00
2022-11-22T19:46:30.133Z,57.80
2022-11-22T19:48:59.767Z,60.20
2022-11-22T19:51:30.982Z,59.70
2022-11-22T19:54:02.242Z,59.07
2022-11-22T19:56:32.936Z,58.77
2022-11-22T19:59:02.405Z,58.43
2022-11-22T20:01:33.662Z,56.93
2022-11-22T20:04:04.514Z,58.50
2022-11-22T20:06:33.524Z,57.80
2022-11-22T20:09:02.904Z,58.07
2022-11-22T20:11:30.825Z,58.93
2022-11-22T20:13:59.058Z,59.57
2022-11-22T20:16:29.074Z,62.50
2022-11-22T20:18:59.797Z,63.47
2022-11-22T20:21:33.970Z,65.13
2022-11-22T20:24:02.910Z,65.27
2022-11-22T20:26:32.459Z,65.90
2022-11-22T20:29:02.217Z,65.70
2022-11-22T20:31:32.165Z,68.20
2022-11-22T20:34:03.118Z,65.23
2022-11-22T20:36:32.295Z,67.50
2022-11-22T20:39:04.161Z,67.83
2022-11-22T20:41:37.290Z,65.73
2022-11-22T20:44:06.769Z,67.30
2022-11-22T20:46:37.760Z,67.07
2022-11-22T20:49:07.821Z,68.70
2022-11-22T20:51:39.659Z,69.83
2022-11-22T20:54:08.622Z,71.67
2022-11-22T20:56:37.254Z,72.53
2022-11-22T20:59:05.304Z,70.87
2022-11-22T21:01:33.509Z,68.90
2022-11-22T21:04:01.549Z,69.77
2022-11-22T21:06:32.878Z,73.03
2022-11-22T21:09:00.860Z,74.60
2022-11-22T21:11:31.049Z,73.87
2022-11-22T21:13:59.733Z,73.87
2022-11-22T21:16:30.071Z,72.67
2022-11-22T21:19:01.045Z,75.83
2022-11-22T21:21:31.673Z,77.07
2022-11-22T21:24:01.513Z,74.23
2022-11-22T21:26:30.419Z,74.37
2022-11-22T21:28:59.461Z,71.50
2022-11-22T21:31:28.297Z,72.30
2022-11-22T21:33:56.278Z,70.97
2022-11-22T21:36:24.195Z,72.17
2022-11-22T21:38:53.593Z,69.13
2022-11-22T21:41:40.318Z,69.73
2022-11-22T21:44:09.536Z,70.40
2022-11-22T21:46:37.870Z,67.00
2022-11-22T21:49:05.830Z,69.17
2022-11-22T21:51:33.870Z,70.13
2022-11-22T21:54:03.710Z,72.30
2022-11-22T21:56:31.928Z,68.50
2022-11-22T21:59:00.167Z,68.57
2022-11-22T22:01:28.489Z,77.87
2022-11-22T22:03:56.524Z,79.23
2022-11-22T22:06:25.209Z,69.70
2022-11-22T22:08:53.421Z,66.73
2022-11-22T22:11:23.133Z,67.63
2022-11-22T22:13:53.311Z,67.67
2022-11-22T22:16:23.657Z,66.00
2022-11-22T22:18:51.713Z,66.80
2022-11-22T22:21:20.439Z,64.57
2022-11-22T22:23:48.644Z,65.63
2022-11-22T22:26:18.277Z,65.40
2022-11-22T22:28:47.790Z,68.73
2022-11-22T22:31:21.568Z,68.07
2022-11-22T22:33:51.224Z,69.43
2022-11-22T22:36:20.098Z,66.30
2022-11-22T22:38:48.285Z,67.60
2022-11-22T22:41:16.292Z,68.33
2022-11-22T22:43:46.487Z,67.57
2022-11-22T22:46:17.512Z,66.33
2022-11-22T22:48:46.053Z,66.87
2022-11-22T22:51:16.468Z,66.63
2022-11-22T22:53:46.553Z,67.30
2022-11-22T22:56:15.978Z,69.40
2022-11-22T22:58:44.545Z,70.63
2022-11-22T23:01:17.550Z,69.83
2022-11-22T23:03:48.864Z,68.97
2022-11-22T23:06:17.601Z,69.77
2022-11-22T23:08:47.361Z,69.60
2022-11-22T23:11:16.758Z,70.77
2022-11-22T23:13:45.303Z,72.60
2022-11-22T23:16:15.191Z,72.43
2022-11-22T23:18:45.819Z,73.40
2022-11-22T23:21:15.927Z,72.83
2022-11-22T23:23:46.985Z,75.00
2022-11-22T23:26:15.028Z,74.63
2022-11-22T23:28:42.930Z,72.27
2022-11-22T23:31:12.449Z,74.57
2022-11-22T23:33:40.864Z,74.03
2022-11-22T23:36:12.525Z,76.27
2022-11-22T23:38:40.816Z,71.53
2022-11-22T23:41:10.100Z,75.40
2022-11-22T23:43:37.998Z,77.80
2022-11-22T23:46:06.145Z,77.90
2022-11-22T23:48:34.092Z,77.53
2022-11-22T23:51:04.274Z,75.87
2022-11-22T23:53:33.705Z,77.70
2022-11-22T23:56:06.659Z,80.57
2022-11-22T23:58:34.961Z,77.97
